createdAt,value
2019-01-08T00:01:12.956Z,11.33
2019-01-08T00:03:41.982Z,14.13
2019-01-08T00:06:10.974Z,12.30
2019-01-08T00:08:39.939Z,16.17
2019-01-08T00:11:08.915Z,15.43
2019-01-08T00:13:37.882Z,14.73
2019-01-08T00:16:06.879Z,14.37
2019-01-08T00:18:35.846Z,12.83
2019-01-08T00:21:04.831Z,12.60
2019-01-08T00:23:33.799Z,12.70
2019-01-08T00:26:02.778Z,12.20
2019-01-08T00:28:31.741Z,13.03
2019-01-08T00:31:00.737Z,10.33
2019-01-08T00:33:29.707Z,10.23
2019-01-08T00:35:58.683Z,12.00
2019-01-08T00:38:27.660Z,10.00
2019-01-08T00:40:56.630Z,10.37
2019-01-08T00:43:25.602Z,12.23
2019-01-08T00:45:54.573Z,8.77
2019-01-08T00:48:23.537Z,12.40
2019-01-08T00:50:52.515Z,9.57
2019-01-08T00:53:21.480Z,10.33
2019-01-08T00:55:50.469Z,10.70
2019-01-08T00:58:19.435Z,9.77
2019-01-08T01:00:48.435Z,8.77
2019-01-08T01:03:17.462Z,8.67
2019-01-08T01:05:46.513Z,10.13
2019-01-08T01:08:15.466Z,8.97
2019-01-08T01:10:44.437Z,8.77
2019-01-08T01:13:13.418Z,8.00
2019-01-08T01:15:43.294Z,9.57
2019-01-08T01:18:12.295Z,7.93
2019-01-08T01:20:41.257Z,7.80
2019-01-08T01:23:10.239Z,8.27
2019-01-08T01:25:39.207Z,8.37
2019-01-08T01:28:08.186Z,7.17
2019-01-08T01:30:37.152Z,8.63
2019-01-08T01:33:06.122Z,7.87
2019-01-08T01:35:35.107Z,6.60
2019-01-08T01:38:04.070Z,6.83
2019-01-08T01:40:33.032Z,7.27
2019-01-08T01:43:02.005Z,5.23
2019-01-08T01:45:30.954Z,6.37
2019-01-08T01:47:59.938Z,5.40
2019-01-08T01:50:28.947Z,4.50
2019-01-08T01:52:57.957Z,4.63
2019-01-08T01:55:26.917Z,4.20
2019-01-08T01:57:55.969Z,4.13
2019-01-08T02:00:25.398Z,4.10
2019-01-08T02:02:54.377Z,3.93
2019-01-08T02:05:23.353Z,4.10
2019-01-08T02:07:52.382Z,4.20
2019-01-08T02:10:21.374Z,3.77
2019-01-08T02:12:50.443Z,5.63
2019-01-08T02:15:19.562Z,4.77
2019-01-08T02:17:48.576Z,3.70
2019-01-08T02:20:17.527Z,4.27
2019-01-08T02:22:46.512Z,4.37
2019-01-08T02:25:15.502Z,3.93
2019-01-08T02:27:44.462Z,4.27
2019-01-08T02:30:13.496Z,5.27
2019-01-08T02:32:42.451Z,4.23
2019-01-08T02:35:11.427Z,4.23
2019-01-08T02:37:40.386Z,5.03
2019-01-08T02:40:09.496Z,4.27
2019-01-08T02:42:38.466Z,4.40
2019-01-08T02:45:07.582Z,5.13
2019-01-08T02:47:36.538Z,4.57
2019-01-08T02:50:05.652Z,4.70
2019-01-08T02:52:34.614Z,5.43
2019-01-08T02:55:03.659Z,5.03
2019-01-08T02:57:32.614Z,4.47
2019-01-08T03:00:01.583Z,4.93
2019-01-08T03:02:30.559Z,4.47
2019-01-08T03:04:59.526Z,4.00
2019-01-08T03:07:28.494Z,3.60
2019-01-08T03:09:57.451Z,3.63
2019-01-08T03:12:26.443Z,3.60
2019-01-08T03:14:55.394Z,3.70
2019-01-08T03:17:24.374Z,4.53
2019-01-08T03:19:53.339Z,3.53
2019-01-08T03:22:22.315Z,4.40
2019-01-08T03:24:51.278Z,3.27
2019-01-08T03:27:20.247Z,5.03
2019-01-08T03:29:49.210Z,3.73
2019-01-08T03:32:18.189Z,3.60
2019-01-08T03:34:47.167Z,3.70
2019-01-08T03:37:16.159Z,3.17
2019-01-08T03:39:45.107Z,3.40
2019-01-08T03:42:14.091Z,2.90
2019-01-08T03:44:43.045Z,2.87
2019-01-08T03:47:12.025Z,4.03
2019-01-08T03:49:40.988Z,2.57
2019-01-08T03:52:09.966Z,5.30
2019-01-08T03:54:38.996Z,2.93
2019-01-08T03:57:07.986Z,4.60
2019-01-08T03:59:41.840Z,5.20
2019-01-08T04:02:07.632Z,4.97
2019-01-08T04:04:36.594Z,5.23
2019-01-08T04:07:05.581Z,4.23
2019-01-08T04:09:34.539Z,7.03
2019-01-08T04:12:03.508Z,7.03
2019-01-08T04:14:32.466Z,8.23
2019-01-08T04:17:01.434Z,7.90
2019-01-08T04:19:30.405Z,7.23
2019-01-08T04:21:59.382Z,7.57
2019-01-08T04:24:28.351Z,8.23
2019-01-08T04:26:57.325Z,14.73
2019-01-08T04:29:26.291Z,7.33
2019-01-08T04:31:55.279Z,11.33
2019-01-08T04:34:24.241Z,7.80
2019-01-08T04:36:53.219Z,9.07
2019-01-08T04:39:22.191Z,10.83
2019-01-08T04:41:51.163Z,8.33
2019-01-08T04:44:20.140Z,9.90
2019-01-08T04:46:49.105Z,9.10
2019-01-08T04:49:18.070Z,9.00
2019-01-08T04:51:47.042Z,9.47
2019-01-08T04:54:16.003Z,10.93
2019-01-08T04:56:44.984Z,7.83
2019-01-08T04:59:13.942Z,5.43
2019-01-08T05:01:42.927Z,8.40
2019-01-08T05:04:11.884Z,9.37
2019-01-08T05:06:40.858Z,10.00
2019-01-08T05:09:09.814Z,6.80
2019-01-08T05:11:38.791Z,9.00
2019-01-08T05:14:07.762Z,10.20
2019-01-08T05:16:36.742Z,10.17
2019-01-08T05:19:05.709Z,9.80
2019-01-08T05:21:34.691Z,13.63
2019-01-08T05:24:03.663Z,9.70
2019-01-08T05:26:32.623Z,9.13
2019-01-08T05:29:01.602Z,10.03
2019-01-08T05:31:30.567Z,9.17
2019-01-08T05:33:59.547Z,12.07
2019-01-08T05:36:28.497Z,7.73
2019-01-08T05:38:57.477Z,9.13
2019-01-08T05:41:26.454Z,11.70
2019-01-08T05:43:55.431Z,8.83
2019-01-08T05:46:24.391Z,12.00
2019-01-08T05:48:53.363Z,13.23
2019-01-08T05:51:22.331Z,10.27
2019-01-08T05:53:51.309Z,14.97
2019-01-08T05:56:20.271Z,14.63
2019-01-08T05:58:49.238Z,11.47
2019-01-08T06:01:18.198Z,10.90
2019-01-08T06:03:47.192Z,14.67
2019-01-08T06:06:16.143Z,12.17
2019-01-08T06:08:45.122Z,10.80
2019-01-08T06:11:14.090Z,8.53
2019-01-08T06:13:43.075Z,8.60
2019-01-08T06:16:12.030Z,11.13
2019-01-08T06:18:41.007Z,10.97
2019-01-08T06:21:09.979Z,8.60
2019-01-08T06:23:38.952Z,10.23
2019-01-08T06:26:07.903Z,11.50
2019-01-08T06:28:36.879Z,7.87
2019-01-08T06:31:05.847Z,7.63
2019-01-08T06:33:34.843Z,10.10
2019-01-08T06:36:03.810Z,13.03
2019-01-08T06:38:32.790Z,13.17
2019-01-08T06:41:01.755Z,10.93
2019-01-08T06:43:30.726Z,7.97
2019-01-08T06:45:59.687Z,9.70
2019-01-08T06:48:28.665Z,13.87
2019-01-08T06:50:57.627Z,7.77
2019-01-08T06:53:26.606Z,8.87
2019-01-08T06:55:55.575Z,10.20
2019-01-08T06:58:24.547Z,7.47
2019-01-08T07:00:53.503Z,9.37
2019-01-08T07:03:22.488Z,8.27
2019-01-08T07:05:51.443Z,8.83
2019-01-08T07:08:20.428Z,11.13
2019-01-08T07:10:49.389Z,10.40
2019-01-08T07:13:18.368Z,6.63
2019-01-08T07:15:47.329Z,8.20
2019-01-08T07:18:16.310Z,6.17
2019-01-08T07:20:45.283Z,6.20
2019-01-08T07:23:14.254Z,5.63
2019-01-08T07:25:43.208Z,4.90
2019-01-08T07:28:12.190Z,5.93
2019-01-08T07:30:41.706Z,9.37
2019-01-08T07:33:10.904Z,6.43
2019-01-08T07:35:39.897Z,7.57
2019-01-08T07:38:08.865Z,8.17
2019-01-08T07:40:37.838Z,9.50
2019-01-08T07:43:06.801Z,8.90
2019-01-08T07:45:35.771Z,9.53
2019-01-08T07:48:04.746Z,12.03
2019-01-08T07:50:33.726Z,9.60
2019-01-08T07:53:02.675Z,7.33
2019-01-08T07:55:31.664Z,10.23
2019-01-08T07:58:00.642Z,11.43
2019-01-08T08:00:29.685Z,8.37
2019-01-08T08:02:58.660Z,7.60
2019-01-08T08:05:27.647Z,11.67
2019-01-08T08:07:56.606Z,9.67
2019-01-08T08:10:25.587Z,6.80
2019-01-08T08:12:54.543Z,10.20
2019-01-08T08:15:23.548Z,10.67
2019-01-08T08:17:52.884Z,7.37
2019-01-08T08:20:21.863Z,5.13
2019-01-08T08:22:50.828Z,9.40
2019-01-08T08:25:19.908Z,9.13
2019-01-08T08:27:48.876Z,10.60
2019-01-08T08:30:17.846Z,8.67
2019-01-08T08:32:46.822Z,7.87
2019-01-08T08:35:15.799Z,6.83
2019-01-08T08:37:44.774Z,7.17
2019-01-08T08:40:13.738Z,5.97
2019-01-08T08:42:42.699Z,7.87
2019-01-08T08:45:11.685Z,8.47
2019-01-08T08:47:40.640Z,8.13
2019-01-08T08:50:09.674Z,8.17
2019-01-08T08:52:38.625Z,4.10
2019-01-08T08:55:07.688Z,12.67
2019-01-08T08:57:36.655Z,6.57
2019-01-08T09:00:07.975Z,8.67
2019-01-08T09:02:36.944Z,9.23
2019-01-08T09:05:06.066Z,10.53
2019-01-08T09:07:35.027Z,15.17
2019-01-08T09:10:04.775Z,7.27
2019-01-08T09:12:33.766Z,8.40
2019-01-08T09:15:02.728Z,10.03
2019-01-08T09:17:31.675Z,7.23
2019-01-08T09:20:00.651Z,7.07
2019-01-08T09:22:29.620Z,10.87
2019-01-08T09:24:58.602Z,7.03
2019-01-08T09:27:27.588Z,7.43
2019-01-08T09:29:56.572Z,7.43
2019-01-08T09:32:25.541Z,7.20
2019-01-08T09:34:54.515Z,5.47
2019-01-08T09:37:23.495Z,8.37
2019-01-08T09:39:52.466Z,6.10
2019-01-08T09:42:21.439Z,5.93
2019-01-08T09:44:50.399Z,7.47
2019-01-08T09:47:19.365Z,7.37
2019-01-08T09:49:48.320Z,5.37
2019-01-08T09:52:17.296Z,8.37
2019-01-08T09:54:46.258Z,6.03
2019-01-08T09:57:15.240Z,7.23
2019-01-08T09:59:44.202Z,5.23
2019-01-08T10:02:13.184Z,4.50
2019-01-08T10:04:42.153Z,5.50
2019-01-08T10:07:11.131Z,3.23
2019-01-08T10:09:40.099Z,4.60
2019-01-08T10:12:09.082Z,6.67
2019-01-08T10:14:38.038Z,4.37
2019-01-08T10:17:07.024Z,7.20
2019-01-08T10:19:35.975Z,6.03
2019-01-08T10:22:04.964Z,5.33
2019-01-08T10:24:33.919Z,7.70
2019-01-08T10:27:02.899Z,7.33
2019-01-08T10:29:31.868Z,6.70
2019-01-08T10:32:00.850Z,7.47
2019-01-08T10:34:29.816Z,6.37
2019-01-08T10:36:58.794Z,6.87
2019-01-08T10:39:27.756Z,7.17
2019-01-08T10:41:56.746Z,8.50
2019-01-08T10:44:25.713Z,9.30
2019-01-08T10:46:54.682Z,7.80
2019-01-08T10:49:23.668Z,6.50
2019-01-08T10:51:52.668Z,11.77
2019-01-08T10:54:21.627Z,12.63
2019-01-08T10:56:50.606Z,13.33
2019-01-08T10:59:19.579Z,6.60
2019-01-08T11:01:48.568Z,9.13
2019-01-08T11:04:17.527Z,10.37
2019-01-08T11:06:46.591Z,8.97
2019-01-08T11:09:15.618Z,9.60
2019-01-08T11:11:44.609Z,6.27
2019-01-08T11:14:13.580Z,9.70
2019-01-08T11:16:42.552Z,7.73
2019-01-08T11:19:11.588Z,8.63
2019-01-08T11:21:40.578Z,8.87
2019-01-08T11:24:09.529Z,7.47
2019-01-08T11:26:38.511Z,8.20
2019-01-08T11:29:07.473Z,4.17
2019-01-08T11:31:36.460Z,4.67
2019-01-08T11:34:05.428Z,7.70
2019-01-08T11:36:34.397Z,9.17
2019-01-08T11:39:04.424Z,4.40
2019-01-08T11:41:33.415Z,6.63
2019-01-08T11:44:02.370Z,6.47
2019-01-08T11:46:31.328Z,3.73
2019-01-08T11:49:00.298Z,4.17
2019-01-08T11:51:29.264Z,5.80
2019-01-08T11:53:58.238Z,6.73
2019-01-08T11:56:27.200Z,6.40
2019-01-08T11:58:56.200Z,8.33
2019-01-08T12:01:25.166Z,3.50
2019-01-08T12:03:54.215Z,3.67
2019-01-08T12:06:23.178Z,6.60
2019-01-08T12:08:52.163Z,4.93
2019-01-08T12:11:21.139Z,6.17
2019-01-08T12:13:50.133Z,9.27
2019-01-08T12:16:19.158Z,5.57
2019-01-08T12:18:48.144Z,5.13
2019-01-08T12:21:17.114Z,5.63
2019-01-08T12:23:46.084Z,4.03
2019-01-08T12:26:15.054Z,7.20
2019-01-08T12:28:44.042Z,7.03
2019-01-08T12:31:13.073Z,9.40
2019-01-08T12:33:42.069Z,10.73
2019-01-08T12:36:11.028Z,6.20
2019-01-08T12:38:40.021Z,9.20
2019-01-08T12:41:08.988Z,3.37
2019-01-08T12:43:37.995Z,4.43
2019-01-08T12:46:06.957Z,4.97
2019-01-08T12:48:35.925Z,3.53
2019-01-08T12:51:04.903Z,3.40
2019-01-08T12:53:33.886Z,5.60
2019-01-08T12:56:02.860Z,8.03
2019-01-08T12:58:31.832Z,9.40
2019-01-08T13:01:00.793Z,4.70
2019-01-08T13:03:29.775Z,5.50
2019-01-08T13:05:58.753Z,5.70
2019-01-08T13:08:27.730Z,6.07
2019-01-08T13:10:56.694Z,6.80
2019-01-08T13:13:27.390Z,3.10
2019-01-08T13:15:56.357Z,5.23
2019-01-08T13:18:25.350Z,4.67
2019-01-08T13:20:54.310Z,5.07
2019-01-08T13:23:23.346Z,8.93
2019-01-08T13:25:52.307Z,4.47
2019-01-08T13:28:23.386Z,7.00
2019-01-08T13:30:51.943Z,6.93
2019-01-08T13:33:20.925Z,8.27
2019-01-08T13:35:49.902Z,12.37
2019-01-08T13:38:18.870Z,8.40
2019-01-08T13:40:47.822Z,5.93
2019-01-08T13:43:16.804Z,7.23
2019-01-08T13:45:45.775Z,10.23
2019-01-08T13:48:14.762Z,7.33
2019-01-08T13:50:43.726Z,6.60
2019-01-08T13:53:12.814Z,7.07
2019-01-08T13:55:41.789Z,7.90
2019-01-08T13:58:10.787Z,11.80
2019-01-08T14:00:39.775Z,11.83
2019-01-08T14:03:08.779Z,9.33
2019-01-08T14:05:37.750Z,6.40
2019-01-08T14:08:06.714Z,11.90
2019-01-08T14:10:35.698Z,9.57
2019-01-08T14:13:04.671Z,8.67
2019-01-08T14:15:33.631Z,6.43
2019-01-08T14:18:02.676Z,9.17
2019-01-08T14:20:31.634Z,8.07
2019-01-08T14:23:00.639Z,10.03
2019-01-08T14:25:29.595Z,9.90
2019-01-08T14:27:58.644Z,5.97
2019-01-08T14:30:27.603Z,4.70
2019-01-08T14:32:56.575Z,5.10
2019-01-08T14:35:25.542Z,2.73
2019-01-08T14:37:54.533Z,1.93
2019-01-08T14:40:23.502Z,3.47
2019-01-08T14:42:52.634Z,2.63
2019-01-08T14:45:21.590Z,3.50
2019-01-08T14:47:51.509Z,3.10
2019-01-08T14:50:20.458Z,3.03
2019-01-08T14:52:49.446Z,6.17
2019-01-08T14:55:18.423Z,7.50
2019-01-08T14:57:47.396Z,5.50
2019-01-08T15:00:16.351Z,4.13
2019-01-08T15:02:49.633Z,10.73
2019-01-08T15:05:16.014Z,7.10
2019-01-08T15:07:45.072Z,8.47
2019-01-08T15:10:14.074Z,9.23
2019-01-08T15:12:43.100Z,9.57
2019-01-08T15:15:12.922Z,10.47
2019-01-08T15:17:42.027Z,8.83
2019-01-08T15:20:10.999Z,8.23
2019-01-08T15:22:39.962Z,6.63
2019-01-08T15:25:09.062Z,8.47
2019-01-08T15:27:38.010Z,12.90
2019-01-08T15:30:09.537Z,8.80
2019-01-08T15:32:38.491Z,9.87
2019-01-08T15:35:07.627Z,8.13
2019-01-08T15:37:36.624Z,10.33
2019-01-08T15:40:06.359Z,9.67
2019-01-08T15:42:35.324Z,8.53
2019-01-08T15:45:04.567Z,7.97
2019-01-08T15:47:33.536Z,5.33
2019-01-08T15:50:02.506Z,9.37
2019-01-08T15:52:31.462Z,5.23
2019-01-08T15:55:00.447Z,7.87
2019-01-08T15:57:29.486Z,7.53
2019-01-08T15:59:58.459Z,7.30
2019-01-08T16:02:27.412Z,3.97
2019-01-08T16:04:56.386Z,7.03
2019-01-08T16:07:25.357Z,5.70
2019-01-08T16:09:54.359Z,7.33
2019-01-08T16:12:23.436Z,4.17
2019-01-08T16:14:52.405Z,7.57
2019-01-08T16:17:21.402Z,9.67
2019-01-08T16:19:50.363Z,4.83
2019-01-08T16:22:19.353Z,8.63
2019-01-08T16:24:48.302Z,11.70
2019-01-08T16:27:17.295Z,7.77
2019-01-08T16:29:46.260Z,9.67
2019-01-08T16:32:15.254Z,8.00
2019-01-08T16:34:44.218Z,7.60
2019-01-08T16:37:13.200Z,6.73
2019-01-08T16:39:42.166Z,7.73
2019-01-08T16:42:11.155Z,7.87
2019-01-08T16:44:40.110Z,5.37
2019-01-08T16:47:09.095Z,7.93
2019-01-08T16:49:38.080Z,6.27
2019-01-08T16:52:07.067Z,6.83
2019-01-08T16:54:36.028Z,4.83
2019-01-08T16:57:05.004Z,7.47
2019-01-08T16:59:33.992Z,9.70
2019-01-08T17:02:03.041Z,7.30
2019-01-08T17:04:31.994Z,4.93
2019-01-08T17:07:01.063Z,6.00
2019-01-08T17:09:30.275Z,4.20
2019-01-08T17:11:59.259Z,2.93
2019-01-08T17:14:28.234Z,4.33
2019-01-08T17:16:57.203Z,2.73
2019-01-08T17:19:26.175Z,3.53
2019-01-08T17:21:55.165Z,5.23
2019-01-08T17:24:24.129Z,7.13
2019-01-08T17:26:53.116Z,4.77
2019-01-08T17:29:22.066Z,3.90
2019-01-08T17:31:51.114Z,4.07
2019-01-08T17:34:20.163Z,6.67
2019-01-08T17:36:49.151Z,8.97
2019-01-08T17:39:18.130Z,10.50
2019-01-08T17:41:47.132Z,10.10
2019-01-08T17:44:16.117Z,11.43
2019-01-08T17:46:45.176Z,9.53
2019-01-08T17:49:14.123Z,9.40
2019-01-08T17:51:43.128Z,9.63
2019-01-08T17:54:12.104Z,12.43
2019-01-08T17:56:41.108Z,6.27
2019-01-08T17:59:11.067Z,8.97
2019-01-08T18:01:43.398Z,11.10
2019-01-08T18:04:12.375Z,12.23
2019-01-08T18:06:41.359Z,10.40
2019-01-08T18:09:10.357Z,9.43
2019-01-08T18:11:39.415Z,12.27
2019-01-08T18:14:08.395Z,10.10
2019-01-08T18:16:37.369Z,10.50
2019-01-08T18:19:06.426Z,8.03
2019-01-08T18:21:35.403Z,12.73
2019-01-08T18:24:04.462Z,10.67
2019-01-08T18:26:34.358Z,11.20
2019-01-08T18:29:03.679Z,11.63
2019-01-08T18:31:32.720Z,12.30
2019-01-08T18:34:01.702Z,15.30
2019-01-08T18:36:30.680Z,9.60
2019-01-08T18:38:59.666Z,8.53
2019-01-08T18:41:28.631Z,7.60
2019-01-08T18:43:57.632Z,13.17
2019-01-08T18:46:26.598Z,8.87
2019-01-08T18:48:55.669Z,14.37
2019-01-08T18:51:24.633Z,6.20
2019-01-08T18:53:53.608Z,8.40
2019-01-08T18:56:22.671Z,9.43
2019-01-08T18:58:51.666Z,8.67
2019-01-08T19:01:20.694Z,10.33
2019-01-08T19:03:49.699Z,13.83
2019-01-08T19:06:18.654Z,10.77
2019-01-08T19:09:24.041Z,9.53
2019-01-08T19:11:53.466Z,7.07
2019-01-08T19:14:25.629Z,9.30
2019-01-08T19:16:54.655Z,10.10
2019-01-08T19:19:23.633Z,8.83
2019-01-08T19:21:52.655Z,9.13
2019-01-08T19:24:21.638Z,11.53
2019-01-08T19:26:50.596Z,8.03
2019-01-08T19:29:19.599Z,3.30
2019-01-08T19:31:48.581Z,10.03
2019-01-08T19:34:17.628Z,9.13
2019-01-08T19:36:46.649Z,8.73
2019-01-08T19:39:15.687Z,10.70
2019-01-08T19:41:44.655Z,9.10
2019-01-08T19:44:13.638Z,16.07
2019-01-08T19:46:42.618Z,9.53
2019-01-08T19:49:11.658Z,12.00
2019-01-08T19:51:40.627Z,9.67
2019-01-08T19:54:09.626Z,14.60
2019-01-08T19:56:38.586Z,11.70
2019-01-08T19:59:07.598Z,11.17
2019-01-08T20:01:36.558Z,10.03
2019-01-08T20:04:05.531Z,10.93
2019-01-08T20:06:34.511Z,9.03
2019-01-08T20:09:05.095Z,6.37
2019-01-08T20:11:34.527Z,9.47
2019-01-08T20:14:03.502Z,5.53
2019-01-08T20:16:32.546Z,7.50
2019-01-08T20:19:01.538Z,7.93
2019-01-08T20:21:30.580Z,7.13
2019-01-08T20:24:06.230Z,7.57
2019-01-08T20:26:30.555Z,9.67
2019-01-08T20:28:59.548Z,7.33
2019-01-08T20:31:28.574Z,7.50
2019-01-08T20:33:57.560Z,8.43
2019-01-08T20:36:26.536Z,12.63
2019-01-08T20:38:55.517Z,13.07
2019-01-08T20:41:24.503Z,6.97
2019-01-08T20:43:53.490Z,8.53
2019-01-08T20:46:22.475Z,9.57
2019-01-08T20:48:51.691Z,11.80
2019-01-08T20:51:20.677Z,9.43
2019-01-08T20:53:49.654Z,14.33
2019-01-08T20:56:18.623Z,7.40
2019-01-08T20:58:47.596Z,10.53
2019-01-08T21:01:16.554Z,8.70
2019-01-08T21:03:45.559Z,8.23
2019-01-08T21:06:14.499Z,11.90
2019-01-08T21:08:43.468Z,9.50
2019-01-08T21:11:12.444Z,8.83
2019-01-08T21:13:41.427Z,8.13
2019-01-08T21:16:10.412Z,13.00
2019-01-08T21:18:39.418Z,10.43
2019-01-08T21:21:08.483Z,14.30
2019-01-08T21:23:37.601Z,13.47
2019-01-08T21:26:06.574Z,11.90
2019-01-08T21:28:35.541Z,9.67
2019-01-08T21:31:04.662Z,5.70
2019-01-08T21:33:33.645Z,9.43
2019-01-08T21:36:02.625Z,7.47
2019-01-08T21:38:31.587Z,8.03
2019-01-08T21:41:00.580Z,9.23
2019-01-08T21:43:29.579Z,7.20
2019-01-08T21:45:58.550Z,8.63
2019-01-08T21:48:27.514Z,8.87
2019-01-08T21:50:56.967Z,4.70
2019-01-08T21:53:25.950Z,7.10
2019-01-08T21:55:54.935Z,6.13
2019-01-08T21:58:23.981Z,5.97
2019-01-08T22:00:53.019Z,5.00
2019-01-08T22:03:22.431Z,5.00
2019-01-08T22:05:51.406Z,4.97
2019-01-08T22:08:20.439Z,7.67
2019-01-08T22:10:49.418Z,6.63
2019-01-08T22:13:18.383Z,7.33
2019-01-08T22:15:47.374Z,9.37
2019-01-08T22:18:16.358Z,7.43
2019-01-08T22:20:45.403Z,8.20
2019-01-08T22:23:14.386Z,6.90
2019-01-08T22:25:43.363Z,8.13
2019-01-08T22:28:12.556Z,9.60
2019-01-08T22:30:41.518Z,8.93
2019-01-08T22:33:10.831Z,8.33
2019-01-08T22:35:39.890Z,13.17
2019-01-08T22:38:08.919Z,12.97
2019-01-08T22:40:37.921Z,6.90
2019-01-08T22:43:06.877Z,7.93
2019-01-08T22:45:35.934Z,10.77
2019-01-08T22:48:04.956Z,5.33
2019-01-08T22:50:33.931Z,13.27
2019-01-08T22:53:02.913Z,10.50
2019-01-08T22:55:31.953Z,10.37
2019-01-08T22:58:02.032Z,11.57
2019-01-08T23:00:36.472Z,6.30
2019-01-08T23:03:05.494Z,8.23
2019-01-08T23:05:34.531Z,7.40
2019-01-08T23:08:03.646Z,13.03
2019-01-08T23:10:32.711Z,8.67
2019-01-08T23:13:01.807Z,6.90
2019-01-08T23:15:30.834Z,9.43
2019-01-08T23:17:59.795Z,8.07
2019-01-08T23:20:28.932Z,8.20
2019-01-08T23:22:57.982Z,8.07
2019-01-08T23:25:26.965Z,8.83
2019-01-08T23:27:55.943Z,10.27
2019-01-08T23:30:24.911Z,6.03
2019-01-08T23:32:53.879Z,8.63
2019-01-08T23:35:22.862Z,10.40
2019-01-08T23:37:51.890Z,5.90
2019-01-08T23:40:20.950Z,11.57
2019-01-08T23:42:50.044Z,7.63
2019-01-08T23:45:19.168Z,9.53
2019-01-08T23:47:48.122Z,10.73
2019-01-08T23:50:17.226Z,8.83
2019-01-08T23:52:54.979Z,10.50
2019-01-08T23:55:24.203Z,9.23
2019-01-08T23:57:53.230Z,8.37
